โซล, ประเทศเกาหลีใต้

05:08 AM KST วัน พฤศจิกายน 29, 2014 (GMT +0900)
Kimpo International | Change Station
CLOSE
Current Station
Airport
Location: Seoul Kimpo Airport,
Elevation: 59 ft
Nearby Weather Stations

Elev 59 ft 37.56 °N, 126.79 °E | Updated 8 minutes ago

Partly Cloudy
มีเมฆคลุมเป็นส่วนๆ
39 ฟาเรนไฮน์
Feels Like 39 ฟาเรนไฮน์
N
0
ลม ความผันแปร ลม from ทางทิศเหนือ

วันนี้
High -- | Low -- ฟาเรนไฮน์
--% Chance of Precip.
Yesterday
High -- | Low -- ฟาเรนไฮน์
Precip. -- นิ้ว
7:25 AM 5:14 PM
เดือนเสี้ยว, 43% visible
ความดัน 30.09 นิ้ว
ทัศนวิสัย 2.2 ไมล์
เมฆ Few 3000 ft
อุณหภูมิที่อากาศอาจจับตัวเป็นหยาดน้ำค้าง 37 ฟาเรนไฮน์
ความชื้น 93%
Rainfall 0.00 นิ้ว
Snow Depth Not available.
UV 0 out of 12
Pollen Not available.
Air Quality Not available.
Flu Activity Not available.
METAR RKSS 282000Z 00000KT 3500 1400NW BR FEW030 04/03 Q1019 NOSIG

More Conditions Fewer Conditions

ความดัน 30.09 นิ้ว
ทัศนวิสัย 2.2 ไมล์
เมฆ Few 3000 ft
อุณหภูมิที่อากาศอาจจับตัวเป็นหยาดน้ำค้าง 37 ฟาเรนไฮน์
ความชื้น 93%
Rainfall 0.00 นิ้ว
Snow Depth Not available.
UV 0 out of 12
Pollen Not available.
Air Quality Not available.
Flu Activity Not available.
METAR RKSS 282000Z 00000KT 3500 1400NW BR FEW030 04/03 Q1019 NOSIG

More Conditions Fewer Conditions

10-Day Weather Forecast

Almanac

ดาราศาสตร์

Nov. 29, 2014 Rise Set
Actual Time
Civil Twilight
Nautical Twilight
Astronomical Twilight
Moon
Length Of Visible Light
ความยาวของวัน
Tomorrow will be .
, % of the Moon is Illuminated

Today's Extremes

Country Highs Country Lows

Community

WunderPhotos

Upload Photos

1,774,273 photos uploaded!

WunderBlogs® & News

Nearby

Air Quality

  Air Quality AQ Index Pollutant
Not available.

Snow Depth

Station Depth Elevation

Earthquake Activity

City Distance Mag. Time & Date
Minimum magnitude displayed is 2.5.

Coastal Water Temperatures

สถานที่ อุณหภูมิ

Nearby Weather Stations